sensor_id;sensor_type;location;lat;lon;timestamp;pressure;altitude;pressure_sealevel;temperature;humidity
69772;BME280;57046;45.988;18.664;2023-06-22T00:00:58;100787.16;;;24.69;92.90
69772;BME280;57046;45.988;18.664;2023-06-22T00:03:24;100797.47;;;24.61;93.48
69772;BME280;57046;45.988;18.664;2023-06-22T00:05:50;100787.25;;;24.55;94.11
69772;BME280;57046;45.988;18.664;2023-06-22T00:08:17;100782.56;;;24.48;94.50
69772;BME280;57046;45.988;18.664;2023-06-22T00:10:44;100782.16;;;24.50;94.91
69772;BME280;57046;45.988;18.664;2023-06-22T00:13:10;100771.88;;;24.50;94.89
69772;BME280;57046;45.988;18.664;2023-06-22T00:15:36;100767.91;;;24.55;95.08
69772;BME280;57046;45.988;18.664;2023-06-22T00:18:02;100752.91;;;24.56;95.78
69772;BME280;57046;45.988;18.664;2023-06-22T00:20:28;100747.31;;;24.63;95.10
69772;BME280;57046;45.988;18.664;2023-06-22T00:22:54;100745.69;;;24.69;94.69
69772;BME280;57046;45.988;18.664;2023-06-22T00:25:20;100743.28;;;24.71;94.42
69772;BME280;57046;45.988;18.664;2023-06-22T00:27:45;100743.28;;;24.71;94.22
69772;BME280;57046;45.988;18.664;2023-06-22T00:30:11;100746.44;;;24.73;93.92
69772;BME280;57046;45.988;18.664;2023-06-22T00:32:36;100742.88;;;24.72;93.59
69772;BME280;57046;45.988;18.664;2023-06-22T00:35:02;100742.56;;;24.63;95.33
69772;BME280;57046;45.988;18.664;2023-06-22T00:37:27;100740.63;;;24.57;95.85
69772;BME280;57046;45.988;18.664;2023-06-22T00:39:52;100745.41;;;24.56;94.54
69772;BME280;57046;45.988;18.664;2023-06-22T00:42:17;100752.19;;;24.45;95.69
69772;BME280;57046;45.988;18.664;2023-06-22T00:44:43;100765.31;;;24.30;96.51
69772;BME280;57046;45.988;18.664;2023-06-22T00:47:08;100766.22;;;24.16;97.45
69772;BME280;57046;45.988;18.664;2023-06-22T00:49:34;100766.28;;;23.95;98.38
69772;BME280;57046;45.988;18.664;2023-06-22T00:52:00;100776.66;;;23.77;98.96
69772;BME280;57046;45.988;18.664;2023-06-22T00:54:25;100773.50;;;23.75;100.00
69772;BME280;57046;45.988;18.664;2023-06-22T00:56:54;100780.56;;;23.83;100.00
69772;BME280;57046;45.988;18.664;2023-06-22T00:59:20;100784.63;;;23.64;100.00
69772;BME280;57046;45.988;18.664;2023-06-22T01:01:46;100792.91;;;23.61;100.00
69772;BME280;57046;45.988;18.664;2023-06-22T01:04:11;100800.44;;;23.43;100.00
69772;BME280;57046;45.988;18.664;2023-06-22T01:06:45;100791.75;;;23.44;100.00
69772;BME280;57046;45.988;18.664;2023-06-22T01:09:25;100792.16;;;23.46;100.00
69772;BME280;57046;45.988;18.664;2023-06-22T01:11:55;100786.97;;;23.59;100.00
69772;BME280;57046;45.988;18.664;2023-06-22T01:14:27;100779.47;;;23.63;100.00
69772;BME280;57046;45.988;18.664;2023-06-22T01:16:54;100778.28;;;23.71;100.00
69772;BME280;57046;45.988;18.664;2023-06-22T01:19:35;100797.16;;;23.76;100.00
69772;BME280;57046;45.988;18.664;2023-06-22T01:22:01;100795.19;;;23.76;100.00
69772;BME280;57046;45.988;18.664;2023-06-22T01:24:32;100815.28;;;23.84;100.00
69772;BME280;57046;45.988;18.664;2023-06-22T01:29:40;100818.56;;;23.37;100.00
69772;BME280;57046;45.988;18.664;2023-06-22T01:32:06;100831.94;;;23.38;100.00
69772;BME280;57046;45.988;18.664;2023-06-22T01:34:33;100836.69;;;23.45;100.00
69772;BME280;57046;45.988;18.664;2023-06-22T01:36:59;100840.63;;;23.37;100.00
69772;BME280;57046;45.988;18.664;2023-06-22T01:39:25;100838.69;;;23.19;100.00
69772;BME280;57046;45.988;18.664;2023-06-22T01:41:52;100843.03;;;22.81;100.00
69772;BME280;57046;45.988;18.664;2023-06-22T01:44:18;100839.09;;;22.83;100.00
69772;BME280;57046;45.988;18.664;2023-06-22T01:46:45;100836.72;;;22.77;100.00
69772;BME280;57046;45.988;18.664;2023-06-22T01:49:10;100841.47;;;22.91;100.00
69772;BME280;57046;45.988;18.664;2023-06-22T01:51:36;100831.59;;;23.08;100.00
69772;BME280;57046;45.988;18.664;2023-06-22T01:54:01;100843.78;;;23.17;100.00
69772;BME280;57046;45.988;18.664;2023-06-22T01:56:27;100834.72;;;23.27;100.00
69772;BME280;57046;45.988;18.664;2023-06-22T01:59:08;100834.34;;;23.25;100.00
69772;BME280;57046;45.988;18.664;2023-06-22T02:01:44;100851.69;;;23.22;100.00
69772;BME280;57046;45.988;18.664;2023-06-22T02:04:21;100865.09;;;23.03;100.00
69772;BME280;57046;45.988;18.664;2023-06-22T02:06:50;100867.44;;;23.11;100.00
69772;BME280;57046;45.988;18.664;2023-06-22T02:09:20;100859.53;;;23.24;100.00
69772;BME280;57046;45.988;18.664;2023-06-22T02:11:50;100854.03;;;23.34;100.00
69772;BME280;57046;45.988;18.664;2023-06-22T02:14:17;100859.94;;;23.40;100.00
69772;BME280;57046;45.988;18.664;2023-06-22T02:16:43;100852.84;;;23.53;100.00
69772;BME280;57046;45.988;18.664;2023-06-22T02:19:09;100861.13;;;23.57;100.00
69772;BME280;57046;45.988;18.664;2023-06-22T02:21:34;100857.16;;;23.58;100.00
69772;BME280;57046;45.988;18.664;2023-06-22T02:23:59;100854.75;;;23.74;100.00
69772;BME280;57046;45.988;18.664;2023-06-22T02:26:26;100854.38;;;23.68;100.00
69772;BME280;57046;45.988;18.664;2023-06-22T02:28:52;100853.56;;;23.75;100.00
69772;BME280;57046;45.988;18.664;2023-06-22T02:31:18;100855.16;;;23.69;100.00
69772;BME280;57046;45.988;18.664;2023-06-22T02:33:44;100854.75;;;23.81;99.97
69772;BME280;57046;45.988;18.664;2023-06-22T02:36:09;100853.94;;;23.84;99.82
69772;BME280;57046;45.988;18.664;2023-06-22T02:38:35;100854.72;;;23.92;99.76
69772;BME280;57046;45.988;18.664;2023-06-22T02:41:00;100861.41;;;23.94;99.60
69772;BME280;57046;45.988;18.664;2023-06-22T02:43:26;100863.78;;;23.81;100.00
69772;BME280;57046;45.988;18.664;2023-06-22T02:45:51;100855.56;;;23.74;100.00
69772;BME280;57046;45.988;18.664;2023-06-22T02:48:17;100862.22;;;23.84;99.83
69772;BME280;57046;45.988;18.664;2023-06-22T02:50:42;100846.03;;;23.86;99.92
69772;BME280;57046;45.988;18.664;2023-06-22T02:53:07;100851.56;;;23.86;100.00
69772;BME280;57046;45.988;18.664;2023-06-22T02:55:33;100851.13;;;23.95;99.03
69772;BME280;57046;45.988;18.664;2023-06-22T02:57:58;100849.91;;;24.03;98.96
69772;BME280;57046;45.988;18.664;2023-06-22T03:00:24;100844.34;;;24.10;98.36
69772;BME280;57046;45.988;18.664;2023-06-22T03:02:49;100842.41;;;24.07;99.02
69772;BME280;57046;45.988;18.664;2023-06-22T03:05:15;100860.53;;;24.08;98.56
69772;BME280;57046;45.988;18.664;2023-06-22T03:07:40;100860.97;;;23.99;99.04
69772;BME280;57046;45.988;18.664;2023-06-22T03:10:08;100856.69;;;23.88;99.47
69772;BME280;57046;45.988;18.664;2023-06-22T03:12:33;100860.59;;;23.94;99.18
69772;BME280;57046;45.988;18.664;2023-06-22T03:14:58;100871.63;;;23.97;98.51
69772;BME280;57046;45.988;18.664;2023-06-22T03:17:24;100870.88;;;23.90;99.25
69772;BME280;57046;45.988;18.664;2023-06-22T03:19:49;100876.41;;;23.86;99.05
69772;BME280;57046;45.988;18.664;2023-06-22T03:22:15;100879.97;;;23.87;99.87
69772;BME280;57046;45.988;18.664;2023-06-22T03:24:40;100884.69;;;23.86;99.23
69772;BME280;57046;45.988;18.664;2023-06-22T03:27:06;100888.22;;;23.94;99.19
69772;BME280;57046;45.988;18.664;2023-06-22T03:29:32;100887.81;;;23.95;99.02
69772;BME280;57046;45.988;18.664;2023-06-22T03:31:58;100887.03;;;23.98;99.14
69772;BME280;57046;45.988;18.664;2023-06-22T03:34:23;100885.03;;;23.99;98.50
69772;BME280;57046;45.988;18.664;2023-06-22T03:36:48;100886.63;;;24.00;98.67
69772;BME280;57046;45.988;18.664;2023-06-22T03:39:14;100884.66;;;23.97;98.49
69772;BME280;57046;45.988;18.664;2023-06-22T03:41:39;100891.75;;;24.01;98.53
69772;BME280;57046;45.988;18.664;2023-06-22T03:44:04;100891.72;;;24.05;98.62
69772;BME280;57046;45.988;18.664;2023-06-22T03:46:30;100886.19;;;24.12;98.34
69772;BME280;57046;45.988;18.664;2023-06-22T03:48:55;100889.34;;;24.10;98.18
69772;BME280;57046;45.988;18.664;2023-06-22T03:51:20;100883.44;;;24.15;98.44
69772;BME280;57046;45.988;18.664;2023-06-22T03:53:46;100886.59;;;24.14;98.22
69772;BME280;57046;45.988;18.664;2023-06-22T03:56:11;100882.59;;;24.25;97.82
69772;BME280;57046;45.988;18.664;2023-06-22T03:58:37;100879.78;;;24.32;97.18
69772;BME280;57046;45.988;18.664;2023-06-22T04:01:02;100883.69;;;24.42;96.40
69772;BME280;57046;45.988;18.664;2023-06-22T04:03:27;100880.50;;;24.47;95.83
69772;BME280;57046;45.988;18.664;2023-06-22T04:05:53;100885.16;;;24.57;94.95
69772;BME280;57046;45.988;18.664;2023-06-22T04:08:18;100881.63;;;24.57;94.02
69772;BME280;57046;45.988;18.664;2023-06-22T04:10:43;100887.53;;;24.59;94.54
69772;BME280;57046;45.988;18.664;2023-06-22T04:13:09;100889.09;;;24.60;93.86
69772;BME280;57046;45.988;18.664;2023-06-22T04:15:34;100885.09;;;24.68;93.55
69772;BME280;57046;45.988;18.664;2023-06-22T04:18:00;100883.94;;;24.65;94.01
69772;BME280;57046;45.988;18.664;2023-06-22T04:20:25;100888.28;;;24.66;94.09
69772;BME280;57046;45.988;18.664;2023-06-22T04:22:54;100889.03;;;24.70;93.29
69772;BME280;57046;45.988;18.664;2023-06-22T04:25:20;100899.28;;;24.73;92.48
69772;BME280;57046;45.988;18.664;2023-06-22T04:27:46;100896.06;;;24.82;92.36
69772;BME280;57046;45.988;18.664;2023-06-22T04:30:11;100897.66;;;24.87;91.77
69772;BME280;57046;45.988;18.664;2023-06-22T04:32:37;100901.22;;;24.80;91.81
69772;BME280;57046;45.988;18.664;2023-06-22T04:35:05;100912.66;;;24.82;92.03
69772;BME280;57046;45.988;18.664;2023-06-22T04:37:31;100910.28;;;24.84;91.75
69772;BME280;57046;45.988;18.664;2023-06-22T04:39:56;100908.75;;;24.76;92.36
69772;BME280;57046;45.988;18.664;2023-06-22T04:42:22;100903.94;;;24.87;91.55
69772;BME280;57046;45.988;18.664;2023-06-22T04:44:47;100894.06;;;24.93;90.53
69772;BME280;57046;45.988;18.664;2023-06-22T04:47:12;100888.91;;;24.92;90.35
69772;BME280;57046;45.988;18.664;2023-06-22T04:49:38;100893.66;;;24.91;91.54
69772;BME280;57046;45.988;18.664;2023-06-22T04:52:05;100886.44;;;25.04;89.20
69772;BME280;57046;45.988;18.664;2023-06-22T04:54:31;100899.41;;;25.11;88.63
69772;BME280;57046;45.988;18.664;2023-06-22T04:56:56;100904.94;;;25.14;88.94
69772;BME280;57046;45.988;18.664;2023-06-22T04:59:23;100891.41;;;25.27;87.74
69772;BME280;57046;45.988;18.664;2023-06-22T05:01:48;100895.34;;;25.26;87.32
69772;BME280;57046;45.988;18.664;2023-06-22T05:04:14;100890.97;;;25.28;87.41
69772;BME280;57046;45.988;18.664;2023-06-22T05:06:39;100892.19;;;25.27;86.50
69772;BME280;57046;45.988;18.664;2023-06-22T05:09:04;100890.59;;;25.26;87.07
69772;BME280;57046;45.988;18.664;2023-06-22T05:11:30;100900.50;;;25.27;87.02
69772;BME280;57046;45.988;18.664;2023-06-22T05:13:55;100899.69;;;25.27;86.70
69772;BME280;57046;45.988;18.664;2023-06-22T05:16:21;100897.31;;;25.29;86.78
69772;BME280;57046;45.988;18.664;2023-06-22T05:18:47;100904.75;;;25.36;86.86
69772;BME280;57046;45.988;18.664;2023-06-22T05:21:12;100901.59;;;25.37;86.67
69772;BME280;57046;45.988;18.664;2023-06-22T05:23:37;100905.84;;;25.45;87.16
69772;BME280;57046;45.988;18.664;2023-06-22T05:26:03;100908.25;;;25.43;85.67
69772;BME280;57046;45.988;18.664;2023-06-22T05:28:28;100907.38;;;25.50;86.73
69772;BME280;57046;45.988;18.664;2023-06-22T05:30:53;100916.44;;;25.57;86.50
69772;BME280;57046;45.988;18.664;2023-06-22T05:33:19;100912.06;;;25.60;86.14
69772;BME280;57046;45.988;18.664;2023-06-22T05:35:44;100902.94;;;25.63;86.82
69772;BME280;57046;45.988;18.664;2023-06-22T05:38:09;100904.00;;;25.72;86.81
69772;BME280;57046;45.988;18.664;2023-06-22T05:40:35;100908.31;;;25.77;85.90
69772;BME280;57046;45.988;18.664;2023-06-22T05:43:00;100923.69;;;25.85;84.69
69772;BME280;57046;45.988;18.664;2023-06-22T05:45:25;100914.41;;;25.99;84.78
69772;BME280;57046;45.988;18.664;2023-06-22T05:47:51;100908.31;;;26.11;84.31
69772;BME280;57046;45.988;18.664;2023-06-22T05:50:16;100917.00;;;26.13;84.59
69772;BME280;57046;45.988;18.664;2023-06-22T05:52:41;100910.53;;;26.26;81.61
69772;BME280;57046;45.988;18.664;2023-06-22T05:55:07;100915.09;;;26.40;82.08
69772;BME280;57046;45.988;18.664;2023-06-22T05:57:33;100916.63;;;26.45;82.99
69772;BME280;57046;45.988;18.664;2023-06-22T05:59:58;100914.56;;;26.52;83.30
69772;BME280;57046;45.988;18.664;2023-06-22T06:02:23;100919.31;;;26.52;84.02
69772;BME280;57046;45.988;18.664;2023-06-22T06:04:49;100911.69;;;26.59;80.29
69772;BME280;57046;45.988;18.664;2023-06-22T06:07:14;100911.53;;;26.70;79.86
69772;BME280;57046;45.988;18.664;2023-06-22T06:09:39;100916.13;;;26.80;79.06
69772;BME280;57046;45.988;18.664;2023-06-22T06:12:05;100911.31;;;26.88;81.81
69772;BME280;57046;45.988;18.664;2023-06-22T06:14:30;100910.50;;;26.87;80.73
69772;BME280;57046;45.988;18.664;2023-06-22T06:16:56;100912.75;;;26.96;80.71
69772;BME280;57046;45.988;18.664;2023-06-22T06:19:21;100919.81;;;26.73;80.02
69772;BME280;57046;45.988;18.664;2023-06-22T06:21:46;100931.19;;;26.83;79.37
69772;BME280;57046;45.988;18.664;2023-06-22T06:24:12;100928.78;;;26.81;78.42
69772;BME280;57046;45.988;18.664;2023-06-22T06:26:37;100924.38;;;26.87;78.39
69772;BME280;57046;45.988;18.664;2023-06-22T06:29:03;100936.47;;;27.00;78.52
69772;BME280;57046;45.988;18.664;2023-06-22T06:31:28;100919.13;;;26.93;79.50
69772;BME280;57046;45.988;18.664;2023-06-22T06:33:54;100937.47;;;26.87;78.72
69772;BME280;57046;45.988;18.664;2023-06-22T06:36:20;100927.75;;;26.98;78.35
69772;BME280;57046;45.988;18.664;2023-06-22T06:38:46;100933.41;;;26.91;79.21
69772;BME280;57046;45.988;18.664;2023-06-22T06:41:11;100928.94;;;27.01;78.80
69772;BME280;57046;45.988;18.664;2023-06-22T06:43:36;100924.94;;;27.02;78.54
69772;BME280;57046;45.988;18.664;2023-06-22T06:46:02;100923.59;;;26.87;79.01
69772;BME280;57046;45.988;18.664;2023-06-22T06:48:27;100924.69;;;26.93;79.13
69772;BME280;57046;45.988;18.664;2023-06-22T06:50:52;100928.09;;;27.27;82.00
69772;BME280;57046;45.988;18.664;2023-06-22T06:53:18;100928.66;;;27.42;78.29
69772;BME280;57046;45.988;18.664;2023-06-22T06:55:43;100920.31;;;27.42;76.48
69772;BME280;57046;45.988;18.664;2023-06-22T06:58:08;100927.78;;;27.48;77.44
69772;BME280;57046;45.988;18.664;2023-06-22T07:00:34;100922.03;;;27.59;77.34
69772;BME280;57046;45.988;18.664;2023-06-22T07:02:59;100926.94;;;27.71;77.60
69772;BME280;57046;45.988;18.664;2023-06-22T07:05:24;100930.97;;;27.90;77.50
69772;BME280;57046;45.988;18.664;2023-06-22T07:07:50;100927.78;;;28.11;77.56
69772;BME280;57046;45.988;18.664;2023-06-22T07:10:15;100918.88;;;28.19;76.09
69772;BME280;57046;45.988;18.664;2023-06-22T07:12:40;100917.19;;;28.42;74.55
69772;BME280;57046;45.988;18.664;2023-06-22T07:15:08;100898.19;;;28.56;75.65
69772;BME280;57046;45.988;18.664;2023-06-22T07:17:34;100907.41;;;28.89;72.37
69772;BME280;57046;45.988;18.664;2023-06-22T07:20:00;100914.44;;;29.10;70.24
69772;BME280;57046;45.988;18.664;2023-06-22T07:22:25;100902.47;;;29.29;72.45
69772;BME280;57046;45.988;18.664;2023-06-22T07:24:50;100906.00;;;29.46;69.98
69772;BME280;57046;45.988;18.664;2023-06-22T07:27:16;100895.50;;;29.66;70.58
69772;BME280;57046;45.988;18.664;2023-06-22T07:29:41;100896.88;;;29.90;70.69
69772;BME280;57046;45.988;18.664;2023-06-22T07:32:06;100897.31;;;30.01;69.15
69772;BME280;57046;45.988;18.664;2023-06-22T07:34:32;100890.53;;;30.02;67.53
69772;BME280;57046;45.988;18.664;2023-06-22T07:36:57;100892.88;;;30.04;69.54
69772;BME280;57046;45.988;18.664;2023-06-22T07:39:22;100904.16;;;30.13;68.29
69772;BME280;57046;45.988;18.664;2023-06-22T07:41:48;100895.69;;;30.04;67.45
69772;BME280;57046;45.988;18.664;2023-06-22T07:44:13;100907.06;;;30.09;70.15
69772;BME280;57046;45.988;18.664;2023-06-22T07:46:38;100896.69;;;30.22;70.46
69772;BME280;57046;45.988;18.664;2023-06-22T07:49:04;100899.50;;;30.35;70.18
69772;BME280;57046;45.988;18.664;2023-06-22T07:51:29;100907.44;;;30.37;71.19
69772;BME280;57046;45.988;18.664;2023-06-22T07:53:54;100899.38;;;30.26;70.47
69772;BME280;57046;45.988;18.664;2023-06-22T07:56:20;100898.09;;;30.43;71.01
69772;BME280;57046;45.988;18.664;2023-06-22T07:58:46;100893.88;;;30.51;67.94
69772;BME280;57046;45.988;18.664;2023-06-22T08:01:12;100902.91;;;30.43;69.41
69772;BME280;57046;45.988;18.664;2023-06-22T08:03:38;100893.41;;;30.53;71.91
69772;BME280;57046;45.988;18.664;2023-06-22T08:06:03;100894.19;;;30.66;70.33
69772;BME280;57046;45.988;18.664;2023-06-22T08:08:28;100888.19;;;30.67;70.47
69772;BME280;57046;45.988;18.664;2023-06-22T08:10:54;100886.59;;;30.79;69.87
69772;BME280;57046;45.988;18.664;2023-06-22T08:13:19;100890.41;;;30.85;68.55
69772;BME280;57046;45.988;18.664;2023-06-22T08:15:45;100890.72;;;30.87;67.40
69772;BME280;57046;45.988;18.664;2023-06-22T08:18:10;100895.44;;;31.03;68.13
69772;BME280;57046;45.988;18.664;2023-06-22T08:20:35;100896.09;;;31.07;69.13
69772;BME280;57046;45.988;18.664;2023-06-22T08:23:01;100893.25;;;31.32;68.63
69772;BME280;57046;45.988;18.664;2023-06-22T08:25:26;100894.09;;;31.42;67.50
69772;BME280;57046;45.988;18.664;2023-06-22T08:27:51;100888.19;;;31.40;64.87
69772;BME280;57046;45.988;18.664;2023-06-22T08:30:18;100886.94;;;31.53;65.16
69772;BME280;57046;45.988;18.664;2023-06-22T08:32:43;100890.00;;;31.68;63.22
69772;BME280;57046;45.988;18.664;2023-06-22T08:35:09;100894.34;;;31.69;61.75
69772;BME280;57046;45.988;18.664;2023-06-22T08:37:34;100889.16;;;31.80;64.81
69772;BME280;57046;45.988;18.664;2023-06-22T08:40:01;100891.31;;;31.42;62.06
69772;BME280;57046;45.988;18.664;2023-06-22T08:42:27;100882.13;;;31.54;62.64
69772;BME280;57046;45.988;18.664;2023-06-22T08:44:52;100889.41;;;31.73;61.48
69772;BME280;57046;45.988;18.664;2023-06-22T08:47:18;100895.28;;;31.88;61.48
69772;BME280;57046;45.988;18.664;2023-06-22T08:49:43;100898.00;;;32.00;59.40
69772;BME280;57046;45.988;18.664;2023-06-22T08:52:08;100893.91;;;31.92;61.52
69772;BME280;57046;45.988;18.664;2023-06-22T08:54:34;100883.53;;;32.02;63.14
69772;BME280;57046;45.988;18.664;2023-06-22T08:56:59;100892.22;;;32.16;61.56
69772;BME280;57046;45.988;18.664;2023-06-22T08:59:24;100889.03;;;32.27;60.45
69772;BME280;57046;45.988;18.664;2023-06-22T09:01:50;100884.56;;;32.39;59.53
69772;BME280;57046;45.988;18.664;2023-06-22T09:04:15;100886.25;;;32.67;64.02
69772;BME280;57046;45.988;18.664;2023-06-22T09:06:40;100877.91;;;32.85;61.16
69772;BME280;57046;45.988;18.664;2023-06-22T09:09:06;100880.13;;;32.99;60.50
69772;BME280;57046;45.988;18.664;2023-06-22T09:11:31;100880.44;;;33.01;57.94
69772;BME280;57046;45.988;18.664;2023-06-22T09:13:56;100880.03;;;33.12;59.70
69772;BME280;57046;45.988;18.664;2023-06-22T09:16:22;100875.84;;;33.16;57.94
69772;BME280;57046;45.988;18.664;2023-06-22T09:18:48;100871.47;;;33.24;57.97
69772;BME280;57046;45.988;18.664;2023-06-22T09:21:13;100870.50;;;33.09;58.84
69772;BME280;57046;45.988;18.664;2023-06-22T09:23:38;100855.63;;;33.31;58.42
69772;BME280;57046;45.988;18.664;2023-06-22T09:26:04;100864.47;;;33.56;60.38
69772;BME280;57046;45.988;18.664;2023-06-22T09:28:29;100860.91;;;33.65;57.55
69772;BME280;57046;45.988;18.664;2023-06-22T09:30:55;100855.63;;;33.67;56.41
69772;BME280;57046;45.988;18.664;2023-06-22T09:33:20;100853.91;;;33.69;55.85
69772;BME280;57046;45.988;18.664;2023-06-22T09:35:45;100851.84;;;33.88;55.69
69772;BME280;57046;45.988;18.664;2023-06-22T09:38:11;100853.22;;;34.02;58.15
69772;BME280;57046;45.988;18.664;2023-06-22T09:40:36;100846.19;;;34.15;53.61
69772;BME280;57046;45.988;18.664;2023-06-22T09:43:01;100852.41;;;34.10;52.26
69772;BME280;57046;45.988;18.664;2023-06-22T09:45:27;100844.66;;;33.96;53.97
69772;BME280;57046;45.988;18.664;2023-06-22T09:47:52;100844.34;;;34.12;56.33
69772;BME280;57046;45.988;18.664;2023-06-22T09:50:17;100850.22;;;34.23;53.56
69772;BME280;57046;45.988;18.664;2023-06-22T09:52:43;100834.59;;;34.32;55.44
69772;BME280;57046;45.988;18.664;2023-06-22T09:55:08;100840.72;;;34.54;53.73
69772;BME280;57046;45.988;18.664;2023-06-22T09:57:33;100840.00;;;34.77;54.38
69772;BME280;57046;45.988;18.664;2023-06-22T09:59:59;100826.69;;;34.87;51.97
69772;BME280;57046;45.988;18.664;2023-06-22T10:02:24;100824.81;;;34.84;51.78
69772;BME280;57046;45.988;18.664;2023-06-22T10:04:49;100832.50;;;34.98;51.22
69772;BME280;57046;45.988;18.664;2023-06-22T10:07:15;100830.13;;;35.05;50.82
69772;BME280;57046;45.988;18.664;2023-06-22T10:09:40;100824.84;;;34.98;48.86
69772;BME280;57046;45.988;18.664;2023-06-22T10:12:06;100823.31;;;34.97;50.68
69772;BME280;57046;45.988;18.664;2023-06-22T10:14:32;100823.06;;;35.10;51.65
69772;BME280;57046;45.988;18.664;2023-06-22T10:16:57;100822.19;;;35.28;52.38
69772;BME280;57046;45.988;18.664;2023-06-22T10:19:22;100824.41;;;35.23;50.47
69772;BME280;57046;45.988;18.664;2023-06-22T10:21:48;100832.47;;;35.31;49.92
69772;BME280;57046;45.988;18.664;2023-06-22T10:24:13;100824.03;;;35.45;48.43
69772;BME280;57046;45.988;18.664;2023-06-22T10:26:39;100824.44;;;35.53;50.52
69772;BME280;57046;45.988;18.664;2023-06-22T10:29:04;100822.47;;;35.30;50.76
69772;BME280;57046;45.988;18.664;2023-06-22T10:31:30;100815.41;;;35.34;51.42
69772;BME280;57046;45.988;18.664;2023-06-22T10:33:55;100828.88;;;35.30;48.46
69772;BME280;57046;45.988;18.664;2023-06-22T10:36:22;100804.16;;;35.10;51.19
69772;BME280;57046;45.988;18.664;2023-06-22T10:38:48;100813.00;;;35.42;50.52
69772;BME280;57046;45.988;18.664;2023-06-22T10:41:13;100799.03;;;35.47;52.05
69772;BME280;57046;45.988;18.664;2023-06-22T10:43:39;100824.28;;;35.71;49.97
69772;BME280;57046;45.988;18.664;2023-06-22T10:46:06;100817.59;;;35.68;48.67
69772;BME280;57046;45.988;18.664;2023-06-22T10:48:32;100826.03;;;35.68;49.43
69772;BME280;57046;45.988;18.664;2023-06-22T10:50:57;100800.63;;;35.78;48.85
69772;BME280;57046;45.988;18.664;2023-06-22T10:53:22;100806.72;;;35.91;54.58
69772;BME280;57046;45.988;18.664;2023-06-22T10:55:48;100811.16;;;35.97;52.05
69772;BME280;57046;45.988;18.664;2023-06-22T10:58:13;100805.34;;;36.01;49.65
69772;BME280;57046;45.988;18.664;2023-06-22T11:00:39;100803.72;;;36.09;48.04
69772;BME280;57046;45.988;18.664;2023-06-22T11:03:04;100806.63;;;35.85;49.34
69772;BME280;57046;45.988;18.664;2023-06-22T11:05:29;100801.56;;;36.04;50.95
69772;BME280;57046;45.988;18.664;2023-06-22T11:07:55;100809.25;;;35.89;46.40
69772;BME280;57046;45.988;18.664;2023-06-22T11:10:20;100803.91;;;36.05;46.75
69772;BME280;57046;45.988;18.664;2023-06-22T11:12:46;100801.09;;;35.91;49.86
69772;BME280;57046;45.988;18.664;2023-06-22T11:15:11;100798.75;;;36.18;49.94
69772;BME280;57046;45.988;18.664;2023-06-22T11:17:37;100804.16;;;36.37;48.98
69772;BME280;57046;45.988;18.664;2023-06-22T11:20:02;100788.88;;;36.43;49.10
69772;BME280;57046;45.988;18.664;2023-06-22T11:22:28;100792.00;;;36.31;47.32
69772;BME280;57046;45.988;18.664;2023-06-22T11:24:53;100804.00;;;36.60;48.83
69772;BME280;57046;45.988;18.664;2023-06-22T11:27:18;100785.56;;;36.45;44.89
69772;BME280;57046;45.988;18.664;2023-06-22T11:29:44;100791.38;;;36.56;43.84
69772;BME280;57046;45.988;18.664;2023-06-22T11:32:09;100791.53;;;36.67;43.52
69772;BME280;57046;45.988;18.664;2023-06-22T11:34:35;100788.44;;;36.65;43.61
69772;BME280;57046;45.988;18.664;2023-06-22T11:37:02;100792.31;;;36.67;41.93
69772;BME280;57046;45.988;18.664;2023-06-22T11:39:27;100789.72;;;36.64;42.69
69772;BME280;57046;45.988;18.664;2023-06-22T11:41:52;100793.78;;;36.63;41.61
69772;BME280;57046;45.988;18.664;2023-06-22T11:44:18;100794.78;;;36.80;42.19
69772;BME280;57046;45.988;18.664;2023-06-22T11:46:43;100792.59;;;36.90;43.58
69772;BME280;57046;45.988;18.664;2023-06-22T11:49:08;100789.69;;;37.25;41.54
69772;BME280;57046;45.988;18.664;2023-06-22T11:51:34;100779.47;;;37.53;43.32
69772;BME280;57046;45.988;18.664;2023-06-22T11:53:59;100782.53;;;37.03;39.29
69772;BME280;57046;45.988;18.664;2023-06-22T11:56:25;100781.59;;;36.92;41.05
69772;BME280;57046;45.988;18.664;2023-06-22T11:58:51;100779.94;;;37.26;41.54
69772;BME280;57046;45.988;18.664;2023-06-22T12:01:16;100776.66;;;37.53;41.09
69772;BME280;57046;45.988;18.664;2023-06-22T12:03:41;100765.09;;;37.51;38.40
69772;BME280;57046;45.988;18.664;2023-06-22T12:06:07;100774.00;;;37.18;39.67
69772;BME280;57046;45.988;18.664;2023-06-22T12:08:32;100765.91;;;37.31;37.95
69772;BME280;57046;45.988;18.664;2023-06-22T12:10:57;100769.34;;;37.15;40.53
69772;BME280;57046;45.988;18.664;2023-06-22T12:13:23;100765.09;;;37.25;40.98
69772;BME280;57046;45.988;18.664;2023-06-22T12:15:48;100764.47;;;37.15;39.29
69772;BME280;57046;45.988;18.664;2023-06-22T12:18:13;100764.03;;;37.22;40.54
69772;BME280;57046;45.988;18.664;2023-06-22T12:20:39;100771.25;;;37.03;38.02
69772;BME280;57046;45.988;18.664;2023-06-22T12:23:04;100761.63;;;37.15;39.43
69772;BME280;57046;45.988;18.664;2023-06-22T12:25:29;100754.63;;;37.31;40.50
69772;BME280;57046;45.988;18.664;2023-06-22T12:27:55;100752.66;;;37.11;41.04
69772;BME280;57046;45.988;18.664;2023-06-22T12:30:20;100747.88;;;37.23;40.08
69772;BME280;57046;45.988;18.664;2023-06-22T12:32:46;100757.31;;;37.66;39.99